Time;durP1;ratioP1;P1;durP2;ratioP2;P2;SDS_P1;SDS_P2;PMS_P1;PMS_P2;Temp;Humidity;BMP_temperature;BMP_pressure;BME280_temperature;BME280_humidity;BME280_pressure;Samples;Min_cycle;Max_cycle;Signal;HPM_P1;HPM_P2
2021/10/23 00:01:31;;;;;;;3.72;1.67;;;;;;;;;;4975891;28;20083;-69
2021/10/23 00:03:58;;;;;;;4.70;1.42;;;;;;;;;;4976078;28;20475;-66
2021/10/23 00:06:24;;;;;;;6.93;1.30;;;;;;;;;;4975807;28;20054;-68
2021/10/23 00:08:51;;;;;;;5.47;1.40;;;;;;;;;;4975940;28;20102;-68
2021/10/23 00:11:18;;;;;;;4.78;1.55;;;;;;;;;;4975535;28;20498;-68
2021/10/23 00:13:44;;;;;;;4.30;1.60;;;;;;;;;;4975721;28;20112;-67
2021/10/23 00:16:11;;;;;;;3.53;1.25;;;;;;;;;;4975661;28;20047;-67
2021/10/23 00:18:37;;;;;;;5.88;1.60;;;;;;;;;;4975576;28;20059;-68
2021/10/23 00:21:04;;;;;;;3.70;1.45;;;;;;;;;;4975492;28;20360;-68
2021/10/23 00:23:31;;;;;;;3.67;1.15;;;;;;;;;;4975359;28;20054;-68
2021/10/23 00:25:57;;;;;;;5.47;1.40;;;;;;;;;;4975526;28;20046;-67
2021/10/23 00:28:24;;;;;;;2.97;1.25;;;;;;;;;;4974914;28;20047;-67
2021/10/23 00:30:50;;;;;;;5.22;1.58;;;;;;;;;;4974299;28;20510;-65
2021/10/23 00:33:17;;;;;;;3.90;1.40;;;;;;;;;;4975160;28;20075;-68
2021/10/23 00:35:44;;;;;;;6.82;1.27;;;;;;;;;;4975371;28;20046;-67
2021/10/23 00:38:10;;;;;;;4.90;1.65;;;;;;;;;;4975206;28;20051;-66
2021/10/23 00:40:37;;;;;;;5.85;1.30;;;;;;;;;;4975473;28;20428;-68
2021/10/23 00:43:04;;;;;;;4.35;1.17;;;;;;;;;;4974960;28;20058;-68
2021/10/23 00:45:31;;;;;;;5.10;1.20;;;;;;;;;;4975242;28;20421;-67
2021/10/23 00:47:57;;;;;;;5.57;1.33;;;;;;;;;;4975026;28;20054;-67
2021/10/23 00:50:24;;;;;;;5.40;1.23;;;;;;;;;;4974955;28;20063;-67
2021/10/23 00:52:51;;;;;;;7.13;1.55;;;;;;;;;;4974808;28;20572;-67
2021/10/23 00:55:19;;;;;;;4.43;1.17;;;;;;;;;;4974980;28;20107;-67
2021/10/23 00:57:45;;;;;;;4.22;1.50;;;;;;;;;;4974873;28;20050;-67
2021/10/23 01:00:12;;;;;;;2.33;1.30;;;;;;;;;;4974885;28;20055;-68
2021/10/23 01:02:39;;;;;;;4.25;1.48;;;;;;;;;;4974791;28;20058;-68
2021/10/23 01:05:07;;;;;;;3.60;1.30;;;;;;;;;;4973482;28;20057;-67
2021/10/23 01:07:35;;;;;;;7.05;1.42;;;;;;;;;;4974717;28;20046;-67
2021/10/23 01:10:05;;;;;;;5.22;1.60;;;;;;;;;;4974735;28;20129;-66
2021/10/23 01:12:32;;;;;;;3.33;1.45;;;;;;;;;;4974596;28;20055;-68
2021/10/23 01:14:58;;;;;;;6.28;1.60;;;;;;;;;;4974661;28;20047;-67
2021/10/23 01:17:25;;;;;;;7.15;1.67;;;;;;;;;;4974529;28;20452;-68
2021/10/23 01:19:53;;;;;;;6.55;1.60;;;;;;;;;;4974628;28;20102;-67
2021/10/23 01:22:29;;;;;;;3.92;1.42;;;;;;;;;;4974244;28;20117;-68
2021/10/23 01:24:56;;;;;;;2.85;1.50;;;;;;;;;;4974348;28;20043;-67
2021/10/23 01:27:23;;;;;;;5.18;1.40;;;;;;;;;;4974263;28;20054;-67
2021/10/23 01:29:49;;;;;;;5.07;1.40;;;;;;;;;;4974380;28;20117;-68
2021/10/23 01:32:16;;;;;;;5.75;2.05;;;;;;;;;;4974007;28;20137;-67
2021/10/23 01:34:43;;;;;;;5.85;1.55;;;;;;;;;;4974236;28;20043;-67
2021/10/23 01:37:09;;;;;;;4.80;1.50;;;;;;;;;;4973985;28;20568;-67
2021/10/23 01:39:36;;;;;;;5.53;1.38;;;;;;;;;;4972197;28;20552;-67
2021/10/23 01:42:03;;;;;;;8.02;2.40;;;;;;;;;;4973854;28;20047;-67
2021/10/23 01:44:33;;;;;;;4.45;1.63;;;;;;;;;;4974041;28;20054;-68
2021/10/23 01:47:02;;;;;;;3.83;1.38;;;;;;;;;;4973953;28;20457;-67
2021/10/23 01:49:29;;;;;;;6.95;1.90;;;;;;;;;;4974107;28;20473;-67
2021/10/23 01:51:56;;;;;;;3.00;1.65;;;;;;;;;;4973759;28;20109;-67
2021/10/23 01:54:22;;;;;;;4.90;1.67;;;;;;;;;;4973819;28;20058;-68
2021/10/23 01:56:49;;;;;;;5.43;1.95;;;;;;;;;;4973813;28;20101;-67
2021/10/23 01:59:16;;;;;;;6.47;2.65;;;;;;;;;;4973718;28;20051;-67
2021/10/23 02:01:42;;;;;;;5.90;1.50;;;;;;;;;;4973669;28;20054;-68
2021/10/23 02:04:09;;;;;;;4.18;1.52;;;;;;;;;;4973876;28;20051;-68
2021/10/23 02:06:36;;;;;;;4.25;1.65;;;;;;;;;;4973546;28;20078;-68
2021/10/23 02:09:03;;;;;;;5.90;1.60;;;;;;;;;;4973649;28;20061;-68
2021/10/23 02:11:29;;;;;;;4.97;1.70;;;;;;;;;;4973478;28;20101;-68
2021/10/23 02:13:56;;;;;;;4.28;1.55;;;;;;;;;;4973499;28;20054;-68
2021/10/23 02:16:23;;;;;;;8.25;1.70;;;;;;;;;;4973353;28;20050;-66
2021/10/23 02:18:49;;;;;;;5.32;1.52;;;;;;;;;;4973355;28;20494;-67
2021/10/23 02:21:16;;;;;;;5.57;1.40;;;;;;;;;;4973254;28;20105;-68
2021/10/23 02:23:43;;;;;;;3.85;1.73;;;;;;;;;;4973459;28;20051;-68
2021/10/23 02:26:09;;;;;;;2.85;1.90;;;;;;;;;;4973230;28;20050;-67
2021/10/23 02:28:36;;;;;;;6.47;1.58;;;;;;;;;;4973272;28;20054;-68
2021/10/23 02:31:03;;;;;;;5.60;1.70;;;;;;;;;;4973343;28;20067;-68
2021/10/23 02:33:29;;;;;;;2.33;1.60;;;;;;;;;;4973301;28;20110;-68
2021/10/23 02:35:56;;;;;;;4.75;1.60;;;;;;;;;;4973288;28;20560;-68
2021/10/23 02:38:23;;;;;;;11.15;1.85;;;;;;;;;;4973105;28;20594;-68
2021/10/23 02:40:49;;;;;;;5.75;1.58;;;;;;;;;;4973146;28;20059;-68
2021/10/23 02:43:16;;;;;;;2.63;1.63;;;;;;;;;;4972914;28;20502;-68
2021/10/23 02:45:43;;;;;;;4.95;1.90;;;;;;;;;;4973076;28;20074;-68
2021/10/23 02:48:09;;;;;;;4.72;1.58;;;;;;;;;;4972788;28;20085;-66
2021/10/23 02:50:36;;;;;;;5.50;1.50;;;;;;;;;;4973006;28;20117;-68
2021/10/23 02:53:03;;;;;;;7.78;1.88;;;;;;;;;;4972712;28;20506;-68
2021/10/23 02:55:30;;;;;;;7.35;1.98;;;;;;;;;;4973173;28;20146;-68
2021/10/23 02:57:56;;;;;;;4.47;1.73;;;;;;;;;;4971934;28;20047;-68
2021/10/23 03:00:23;;;;;;;4.88;1.50;;;;;;;;;;4972908;28;20050;-68
2021/10/23 03:02:50;;;;;;;3.35;1.50;;;;;;;;;;4972736;28;20064;-66
2021/10/23 03:05:17;;;;;;;5.90;1.70;;;;;;;;;;4972735;28;20126;-68
2021/10/23 03:07:44;;;;;;;5.07;1.50;;;;;;;;;;4972814;28;20065;-68
2021/10/23 03:10:11;;;;;;;7.75;2.10;;;;;;;;;;4972789;28;20046;-67
2021/10/23 03:12:37;;;;;;;8.13;2.17;;;;;;;;;;4972740;28;20098;-67
2021/10/23 03:15:05;;;;;;;4.85;2.42;;;;;;;;;;4972993;28;20113;-67
2021/10/23 03:17:32;;;;;;;4.65;1.80;;;;;;;;;;4972787;28;20137;-68
2021/10/23 03:19:59;;;;;;;6.78;2.35;;;;;;;;;;4972889;28;20163;-68
2021/10/23 03:22:26;;;;;;;4.53;1.70;;;;;;;;;;4972549;28;20055;-68
2021/10/23 03:24:52;;;;;;;7.45;1.90;;;;;;;;;;4972714;28;20132;-67
2021/10/23 03:27:22;;;;;;;6.13;1.98;;;;;;;;;;4972598;28;20062;-67
2021/10/23 03:29:52;;;;;;;6.78;1.80;;;;;;;;;;4972797;28;20066;-67
2021/10/23 03:32:18;;;;;;;5.47;2.28;;;;;;;;;;4972347;28;20050;-67
2021/10/23 03:34:45;;;;;;;5.43;1.98;;;;;;;;;;4972756;28;20097;-68
2021/10/23 03:37:12;;;;;;;6.05;1.77;;;;;;;;;;4972465;28;20094;-68
2021/10/23 03:39:40;;;;;;;3.67;1.90;;;;;;;;;;4972670;28;20055;-66
2021/10/23 03:42:06;;;;;;;6.13;2.55;;;;;;;;;;4972266;28;20047;-67
2021/10/23 03:44:33;;;;;;;5.55;1.75;;;;;;;;;;4972694;28;20462;-67
2021/10/23 03:47:00;;;;;;;8.00;2.05;;;;;;;;;;4972540;28;20053;-68
2021/10/23 03:49:27;;;;;;;7.28;2.10;;;;;;;;;;4972666;28;20062;-68
2021/10/23 03:51:54;;;;;;;3.88;1.50;;;;;;;;;;4972326;28;20102;-67
2021/10/23 03:54:21;;;;;;;4.70;1.70;;;;;;;;;;4972431;28;20055;-67
2021/10/23 03:56:47;;;;;;;10.45;4.78;;;;;;;;;;4972709;28;20047;-67
2021/10/23 03:59:14;;;;;;;6.10;2.50;;;;;;;;;;4972386;28;20051;-67
2021/10/23 04:01:41;;;;;;;5.07;2.50;;;;;;;;;;4972848;28;20062;-67
2021/10/23 04:04:08;;;;;;;6.60;2.08;;;;;;;;;;4976012;28;20456;-67
2021/10/23 04:06:35;;;;;;;6.93;2.92;;;;;;;;;;4975956;28;20125;-68
2021/10/23 04:09:02;;;;;;;4.88;2.00;;;;;;;;;;4975928;28;20047;-66
2021/10/23 04:11:29;;;;;;;6.90;2.33;;;;;;;;;;4975624;28;20106;-67
2021/10/23 04:13:55;;;;;;;7.97;2.40;;;;;;;;;;4975779;28;20055;-67
2021/10/23 04:16:22;;;;;;;8.70;2.35;;;;;;;;;;4975566;28;20055;-67
2021/10/23 04:18:49;;;;;;;5.75;2.30;;;;;;;;;;4975784;28;20058;-68
2021/10/23 04:21:15;;;;;;;5.63;2.65;;;;;;;;;;4975494;28;20117;-67
2021/10/23 04:23:42;;;;;;;8.80;2.20;;;;;;;;;;4975535;28;20055;-68
2021/10/23 04:26:09;;;;;;;6.43;2.42;;;;;;;;;;4975547;28;20047;-67
2021/10/23 04:28:35;;;;;;;5.65;2.35;;;;;;;;;;4975892;28;20058;-68
2021/10/23 04:31:02;;;;;;;4.65;2.70;;;;;;;;;;4975376;28;20102;-67
2021/10/23 04:33:28;;;;;;;7.40;2.42;;;;;;;;;;4975319;28;20054;-67
2021/10/23 04:35:55;;;;;;;9.73;2.60;;;;;;;;;;4975428;28;20506;-68
2021/10/23 04:38:22;;;;;;;6.90;2.10;;;;;;;;;;4975191;28;20058;-67
2021/10/23 04:40:49;;;;;;;7.10;2.28;;;;;;;;;;4975362;28;20445;-67
2021/10/23 04:43:16;;;;;;;5.40;2.20;;;;;;;;;;4975248;28;20059;-66
2021/10/23 04:45:42;;;;;;;5.97;2.60;;;;;;;;;;4975214;28;20051;-67
2021/10/23 04:48:09;;;;;;;4.20;2.50;;;;;;;;;;4975477;28;20117;-68
2021/10/23 04:50:36;;;;;;;9.00;2.60;;;;;;;;;;4975215;28;20484;-68
2021/10/23 04:53:02;;;;;;;4.82;1.98;;;;;;;;;;4975218;28;20051;-68
2021/10/23 04:55:29;;;;;;;5.53;2.05;;;;;;;;;;4974936;28;20046;-68
2021/10/23 04:57:57;;;;;;;7.53;2.10;;;;;;;;;;4974982;28;20054;-68
2021/10/23 05:00:25;;;;;;;5.63;2.35;;;;;;;;;;4974848;28;20058;-68
2021/10/23 05:02:51;;;;;;;5.63;1.92;;;;;;;;;;4975016;28;20050;-68
2021/10/23 05:05:18;;;;;;;9.45;2.55;;;;;;;;;;4974701;28;20059;-68
2021/10/23 05:07:45;;;;;;;7.22;2.60;;;;;;;;;;4974842;28;20063;-68
2021/10/23 05:10:13;;;;;;;7.85;2.25;;;;;;;;;;4974682;28;20502;-68
2021/10/23 05:12:40;;;;;;;7.20;2.28;;;;;;;;;;4974233;28;20047;-68
2021/10/23 05:15:07;;;;;;;4.50;1.85;;;;;;;;;;4973892;28;20055;-68
2021/10/23 05:17:33;;;;;;;7.75;2.20;;;;;;;;;;4974630;28;20047;-68
2021/10/23 05:20:00;;;;;;;7.50;2.13;;;;;;;;;;4974631;28;20113;-68
2021/10/23 05:22:27;;;;;;;6.68;1.95;;;;;;;;;;4974224;28;20541;-67
2021/10/23 05:24:53;;;;;;;4.82;2.13;;;;;;;;;;4974593;28;20465;-68
2021/10/23 05:27:20;;;;;;;7.43;2.70;;;;;;;;;;4974248;28;20051;-68
2021/10/23 05:29:47;;;;;;;3.42;1.80;;;;;;;;;;4974480;28;20316;-68
2021/10/23 05:32:13;;;;;;;7.95;2.47;;;;;;;;;;4974041;28;20055;-68
2021/10/23 05:34:40;;;;;;;6.93;2.13;;;;;;;;;;4974443;28;20098;-68
2021/10/23 05:37:06;;;;;;;5.00;2.40;;;;;;;;;;4974092;28;20470;-68
2021/10/23 05:39:33;;;;;;;7.28;2.30;;;;;;;;;;4974278;28;20055;-68
2021/10/23 05:42:00;;;;;;;5.78;2.20;;;;;;;;;;4973974;28;20051;-67
2021/10/23 05:44:26;;;;;;;6.80;2.40;;;;;;;;;;4974313;28;20509;-68
2021/10/23 05:46:53;;;;;;;5.38;2.22;;;;;;;;;;4974065;28;20105;-68
2021/10/23 05:49:20;;;;;;;4.35;2.50;;;;;;;;;;4974349;28;20055;-67
2021/10/23 05:51:46;;;;;;;6.53;2.00;;;;;;;;;;4973974;28;20057;-68
2021/10/23 05:54:13;;;;;;;6.65;2.08;;;;;;;;;;4974071;28;20502;-68
2021/10/23 05:56:40;;;;;;;4.05;1.85;;;;;;;;;;4974598;28;20046;-67
2021/10/23 05:59:11;;;;;;;5.13;2.17;;;;;;;;;;4973930;28;20054;-68
2021/10/23 06:01:39;;;;;;;4.40;2.67;;;;;;;;;;4973739;28;20055;-68
2021/10/23 06:04:05;;;;;;;3.63;2.05;;;;;;;;;;4973726;28;20107;-68
2021/10/23 06:06:32;;;;;;;6.72;2.50;;;;;;;;;;4973661;28;20047;-68
2021/10/23 06:09:00;;;;;;;5.97;2.38;;;;;;;;;;4973731;28;20050;-68
2021/10/23 06:11:28;;;;;;;5.60;2.60;;;;;;;;;;4972157;28;20058;-68
2021/10/23 06:13:56;;;;;;;4.88;2.08;;;;;;;;;;4973630;28;20642;-68
2021/10/23 06:16:23;;;;;;;4.15;2.00;;;;;;;;;;4956520;28;20047;-67
2021/10/23 06:18:49;;;;;;;8.38;2.20;;;;;;;;;;4973866;28;20054;-68
2021/10/23 06:21:16;;;;;;;4.28;2.08;;;;;;;;;;4973423;28;20525;-68
2021/10/23 06:23:43;;;;;;;6.35;2.45;;;;;;;;;;4973676;28;20402;-68
2021/10/23 06:26:09;;;;;;;5.35;2.28;;;;;;;;;;4973058;28;20046;-67
2021/10/23 06:28:36;;;;;;;6.60;2.28;;;;;;;;;;4973368;28;20050;-68
2021/10/23 06:31:04;;;;;;;6.40;2.38;;;;;;;;;;4972200;28;20048;-68
2021/10/23 06:33:31;;;;;;;7.20;2.00;;;;;;;;;;4973148;28;20055;-68
2021/10/23 06:35:58;;;;;;;6.88;2.75;;;;;;;;;;4973397;28;20453;-68
2021/10/23 06:38:25;;;;;;;7.80;2.50;;;;;;;;;;4973092;28;20050;-68
2021/10/23 06:40:52;;;;;;;5.70;2.42;;;;;;;;;;4973202;28;20073;-68
2021/10/23 06:43:18;;;;;;;8.02;2.40;;;;;;;;;;4972847;28;20101;-68
2021/10/23 06:45:45;;;;;;;7.50;2.40;;;;;;;;;;4973362;28;20050;-67
2021/10/23 06:48:12;;;;;;;7.45;2.53;;;;;;;;;;4973364;28;20051;-68
2021/10/23 06:50:38;;;;;;;6.25;2.60;;;;;;;;;;4973225;28;20054;-67
2021/10/23 06:53:05;;;;;;;7.28;2.65;;;;;;;;;;4972888;28;20050;-67
2021/10/23 06:55:31;;;;;;;6.30;2.50;;;;;;;;;;4973180;28;20115;-68
2021/10/23 06:57:58;;;;;;;5.57;2.90;;;;;;;;;;4973063;28;20051;-68
2021/10/23 07:00:25;;;;;;;8.52;2.35;;;;;;;;;;4973070;28;20055;-68
2021/10/23 07:02:51;;;;;;;4.85;3.10;;;;;;;;;;4972873;28;20055;-68
2021/10/23 07:05:20;;;;;;;9.48;2.33;;;;;;;;;;4972813;28;20521;-68
2021/10/23 07:07:47;;;;;;;5.15;2.40;;;;;;;;;;4972888;28;20054;-68
2021/10/23 07:10:13;;;;;;;6.07;2.85;;;;;;;;;;4972791;28;20146;-68
2021/10/23 07:12:46;;;;;;;7.87;2.30;;;;;;;;;;4972752;28;20057;-67
2021/10/23 07:15:12;;;;;;;5.50;2.30;;;;;;;;;;4972981;28;20054;-68
2021/10/23 07:17:39;;;;;;;9.27;2.42;;;;;;;;;;4973348;28;20054;-68
2021/10/23 07:20:06;;;;;;;5.63;2.67;;;;;;;;;;4972958;28;20138;-68
2021/10/23 07:22:33;;;;;;;8.05;2.53;;;;;;;;;;4972739;28;20569;-67
2021/10/23 07:25:00;;;;;;;3.83;2.30;;;;;;;;;;4973029;28;20063;-67
2021/10/23 07:27:27;;;;;;;6.53;2.40;;;;;;;;;;4972539;28;20055;-67
2021/10/23 07:29:54;;;;;;;4.97;2.30;;;;;;;;;;4972931;28;20572;-68
2021/10/23 07:32:20;;;;;;;4.53;2.10;;;;;;;;;;4972646;28;20101;-68
2021/10/23 07:34:47;;;;;;;5.05;2.47;;;;;;;;;;4973003;28;20062;-68
2021/10/23 07:37:13;;;;;;;6.75;3.03;;;;;;;;;;4974271;28;20324;-67
2021/10/23 07:39:41;;;;;;;10.32;2.83;;;;;;;;;;4976729;28;20487;-68
2021/10/23 07:42:08;;;;;;;7.68;2.33;;;;;;;;;;4976272;28;20051;-67
2021/10/23 07:44:35;;;;;;;3.78;2.60;;;;;;;;;;4976684;28;20421;-67
2021/10/23 07:47:02;;;;;;;3.40;1.85;;;;;;;;;;4976330;28;20055;-67
2021/10/23 07:49:28;;;;;;;4.28;2.20;;;;;;;;;;4976528;28;20054;-67
2021/10/23 07:51:55;;;;;;;8.90;2.90;;;;;;;;;;4976332;28;20054;-67
2021/10/23 07:54:21;;;;;;;6.50;2.40;;;;;;;;;;4976453;28;20115;-67
2021/10/23 07:56:48;;;;;;;7.60;2.30;;;;;;;;;;4976661;28;20046;-67
2021/10/23 07:59:15;;;;;;;7.15;2.22;;;;;;;;;;4976239;28;20101;-67
2021/10/23 08:01:42;;;;;;;10.77;2.50;;;;;;;;;;4975833;28;20102;-68
2021/10/23 08:04:09;;;;;;;3.15;1.85;;;;;;;;;;4975976;28;20050;-68
2021/10/23 08:06:35;;;;;;;3.80;1.92;;;;;;;;;;4975778;28;20486;-67
2021/10/23 08:09:11;;;;;;;5.45;1.75;;;;;;;;;;4976012;28;20046;-67
2021/10/23 08:11:45;;;;;;;5.50;2.40;;;;;;;;;;4975669;28;20051;-68
2021/10/23 08:14:14;;;;;;;4.82;2.08;;;;;;;;;;4975862;28;20050;-68
2021/10/23 08:16:41;;;;;;;6.60;2.70;;;;;;;;;;4976082;28;20047;-68
2021/10/23 08:19:08;;;;;;;4.90;2.95;;;;;;;;;;4976032;28;20108;-68
2021/10/23 08:21:43;;;;;;;7.32;2.33;;;;;;;;;;4975844;28;20051;-68
2021/10/23 08:24:11;;;;;;;9.90;2.85;;;;;;;;;;4976020;28;20054;-68
2021/10/23 08:26:39;;;;;;;5.10;2.65;;;;;;;;;;4975563;28;20494;-68
2021/10/23 08:29:05;;;;;;;6.22;2.63;;;;;;;;;;4975755;28;20105;-68
2021/10/23 08:31:32;;;;;;;5.78;2.40;;;;;;;;;;4975409;28;20054;-68
2021/10/23 08:33:59;;;;;;;8.32;2.25;;;;;;;;;;4975796;28;20051;-68
2021/10/23 08:36:26;;;;;;;5.47;2.50;;;;;;;;;;4975582;28;20109;-68
2021/10/23 08:38:53;;;;;;;6.68;2.03;;;;;;;;;;4975581;28;20465;-68
2021/10/23 08:41:20;;;;;;;7.25;2.70;;;;;;;;;;4975377;28;20134;-68
2021/10/23 08:43:47;;;;;;;9.27;2.65;;;;;;;;;;4975794;28;20476;-68
2021/10/23 08:46:15;;;;;;;7.35;2.90;;;;;;;;;;4975115;28;20051;-68
2021/10/23 08:48:42;;;;;;;5.97;2.67;;;;;;;;;;4974721;28;20050;-69
2021/10/23 08:51:09;;;;;;;7.65;2.13;;;;;;;;;;4975110;28;20105;-67
2021/10/23 08:53:39;;;;;;;13.77;3.83;;;;;;;;;;4974847;28;20055;-66
2021/10/23 08:56:06;;;;;;;3.97;1.83;;;;;;;;;;4975045;28;20419;-66
2021/10/23 08:58:33;;;;;;;6.13;2.45;;;;;;;;;;4974817;28;20051;-66
2021/10/23 09:01:01;;;;;;;10.10;4.05;;;;;;;;;;4974827;28;20051;-66
2021/10/23 09:03:28;;;;;;;6.32;2.75;;;;;;;;;;4974627;28;20050;-67
2021/10/23 09:05:55;;;;;;;9.90;2.67;;;;;;;;;;4974963;28;20110;-68
2021/10/23 09:08:22;;;;;;;5.50;2.30;;;;;;;;;;4973274;28;20050;-67
2021/10/23 09:11:04;;;;;;;5.30;2.35;;;;;;;;;;4974715;28;20061;-67
2021/10/23 09:13:32;;;;;;;7.93;2.30;;;;;;;;;;4974403;28;20101;-67
2021/10/23 09:16:16;;;;;;;4.82;2.63;;;;;;;;;;4974997;28;20102;-67
2021/10/23 09:18:50;;;;;;;4.65;2.00;;;;;;;;;;4974530;28;20047;-67
2021/10/23 09:21:20;;;;;;;8.93;2.00;;;;;;;;;;4974399;28;20105;-67
2021/10/23 09:23:48;;;;;;;6.15;2.25;;;;;;;;;;4974571;28;20054;-68
2021/10/23 09:26:38;;;;;;;6.18;2.47;;;;;;;;;;4974458;28;20058;-67
2021/10/23 09:29:19;;;;;;;4.93;2.10;;;;;;;;;;4969195;28;20050;-68
2021/10/23 09:32:01;;;;;;;4.30;2.03;;;;;;;;;;4974464;28;20421;-68
2021/10/23 09:34:27;;;;;;;5.65;2.00;;;;;;;;;;4974666;28;20058;-67
2021/10/23 09:36:55;;;;;;;6.50;2.15;;;;;;;;;;4957531;28;20047;-67
2021/10/23 09:39:37;;;;;;;;;;;;;;;;;;4975746;28;20058;-67
2021/10/23 09:42:11;;;;;;;7.45;2.10;;;;;;;;;;4974639;28;19922;-67
2021/10/23 09:45:05;;;;;;;7.85;1.95;;;;;;;;;;4974659;28;20486;-67
2021/10/23 09:47:39;;;;;;;;;;;;;;;;;;4973425;28;20051;-67
2021/10/23 09:50:07;;;;;;;5.63;2.22;;;;;;;;;;4973982;28;19948;-68
2021/10/23 09:52:34;;;;;;;3.58;2.25;;;;;;;;;;4973774;28;20479;-68
2021/10/23 09:55:08;;;;;;;4.70;2.05;;;;;;;;;;4973965;28;20490;-68
2021/10/23 09:57:34;;;;;;;6.53;2.10;;;;;;;;;;4973959;28;20415;-68
2021/10/23 10:00:09;;;;;;;7.10;2.55;;;;;;;;;;4973497;28;20051;-66
2021/10/23 10:02:38;;;;;;;6.03;1.80;;;;;;;;;;4974264;28;20078;-67
2021/10/23 10:05:05;;;;;;;3.70;2.42;;;;;;;;;;4974052;28;20502;-67
2021/10/23 10:07:32;;;;;;;5.82;2.08;;;;;;;;;;4940711;28;20470;-67
2021/10/23 10:10:00;;;;;;;5.13;1.90;;;;;;;;;;4956858;28;20117;-67
2021/10/23 10:12:30;;;;;;;7.32;2.30;;;;;;;;;;4972374;28;20109;-67
2021/10/23 10:14:57;;;;;;;3.55;1.98;;;;;;;;;;4957100;28;20101;-68
2021/10/23 10:17:24;;;;;;;5.93;2.13;;;;;;;;;;4973452;28;20054;-68
2021/10/23 10:19:51;;;;;;;5.22;2.00;;;;;;;;;;4956679;28;20461;-69
2021/10/23 10:22:17;;;;;;;5.72;1.77;;;;;;;;;;4973228;28;20050;-68
2021/10/23 10:24:44;;;;;;;7.40;2.45;;;;;;;;;;4972307;28;20498;-68
2021/10/23 10:27:12;;;;;;;3.85;2.28;;;;;;;;;;4973279;28;20053;-69
2021/10/23 10:30:00;;;;;;;8.80;2.67;;;;;;;;;;4973605;28;20059;-68
2021/10/23 10:32:34;;;;;;;10.23;3.85;;;;;;;;;;4973267;28;20059;-68
2021/10/23 10:43:17;;;;;;;7.05;2.47;;;;;;;;;;4972989;28;20058;-69
2021/10/23 10:45:47;;;;;;;8.27;2.75;;;;;;;;;;4973182;28;20105;-69
2021/10/23 10:48:25;;;;;;;8.02;3.00;;;;;;;;;;4992008;23;20047;-64
2021/10/23 10:50:57;;;;;;;11.05;3.42;;;;;;;;;;4953778;29;20043;-64
2021/10/23 10:53:28;;;;;;;8.23;2.63;;;;;;;;;;4953572;29;20086;-64
2021/10/23 10:56:14;;;;;;;3.47;2.30;;;;;;;;;;4953962;29;20478;-64
2021/10/23 10:58:51;;;;;;;4.90;2.55;;;;;;;;;;4969680;28;20109;-64
2021/10/23 11:01:25;;;;;;;4.93;1.92;;;;;;;;;;4972864;28;20063;-64
2021/10/23 11:04:02;;;;;;;4.85;2.20;;;;;;;;;;4972985;28;20134;-64
2021/10/23 11:06:33;;;;;;;4.25;2.00;;;;;;;;;;4972842;28;20047;-64
2021/10/23 11:09:11;;;;;;;8.50;2.20;;;;;;;;;;4972788;28;20457;-64
2021/10/23 11:11:44;;;;;;;9.07;2.40;;;;;;;;;;4975043;28;20057;-64
2021/10/23 11:14:31;;;;;;;5.38;2.00;;;;;;;;;;4976959;28;20054;-64
2021/10/23 11:17:02;;;;;;;6.35;2.10;;;;;;;;;;4976911;28;20074;-64
2021/10/23 11:19:35;;;;;;;5.30;2.17;;;;;;;;;;4976981;28;20055;-64
2021/10/23 11:22:17;;;;;;;3.50;2.08;;;;;;;;;;4959312;28;20094;-64
2021/10/23 11:25:11;;;;;;;6.07;2.63;;;;;;;;;;4977000;28;20050;-65
2021/10/23 11:27:43;;;;;;;7.28;2.15;;;;;;;;;;4975257;28;20058;-64
2021/10/23 11:30:16;;;;;;;5.57;2.72;;;;;;;;;;4976468;28;20054;-64
2021/10/23 11:33:01;;;;;;;4.55;1.73;;;;;;;;;;4976607;28;20137;-64
2021/10/23 11:35:39;;;;;;;4.40;2.15;;;;;;;;;;4976619;28;20055;-64
2021/10/23 11:38:18;;;;;;;5.13;2.08;;;;;;;;;;4976258;28;20512;-64
2021/10/23 11:40:46;;;;;;;4.45;1.60;;;;;;;;;;4976412;28;20057;-64
2021/10/23 11:43:18;;;;;;;3.10;1.33;;;;;;;;;;4976152;28;20093;-64
2021/10/23 11:45:45;;;;;;;4.65;1.90;;;;;;;;;;4976618;28;20055;-64
2021/10/23 11:48:13;;;;;;;5.85;2.88;;;;;;;;;;4976204;28;20051;-64
2021/10/23 11:50:44;;;;;;;3.35;1.85;;;;;;;;;;4976317;28;20058;-64
2021/10/23 11:53:25;;;;;;;4.85;2.42;;;;;;;;;;4976052;28;20117;-64
2021/10/23 11:56:00;;;;;;;5.95;2.00;;;;;;;;;;4976370;28;20106;-64
2021/10/23 11:58:54;;;;;;;3.72;1.90;;;;;;;;;;4976126;28;20117;-64
2021/10/23 12:01:22;;;;;;;3.85;1.70;;;;;;;;;;4974138;28;20061;-64
2021/10/23 12:04:00;;;;;;;4.07;1.67;;;;;;;;;;4959130;28;20054;-64
2021/10/23 12:06:35;;;;;;;4.22;1.92;;;;;;;;;;4975890;28;20062;-64
2021/10/23 12:09:19;;;;;;;5.88;2.75;;;;;;;;;;4975810;28;20089;-64
2021/10/23 12:12:02;;;;;;;5.80;1.80;;;;;;;;;;4975690;28;20047;-64
2021/10/23 12:14:29;;;;;;;;;;;;;;;;;;4976360;28;20110;-64
2021/10/23 12:16:56;;;;;;;8.10;2.10;;;;;;;;;;4975690;28;19976;-64
2021/10/23 12:19:37;;;;;;;5.07;1.73;;;;;;;;;;4975619;28;20047;-65
2021/10/23 12:22:07;;;;;;;4.18;1.77;;;;;;;;;;4975078;28;20047;-64
2021/10/23 12:24:37;;;;;;;4.10;1.50;;;;;;;;;;4975291;28;20117;-64
2021/10/23 12:27:09;;;;;;;4.57;1.70;;;;;;;;;;4975401;28;20482;-65
2021/10/23 12:29:44;;;;;;;4.95;1.65;;;;;;;;;;4975765;28;20054;-65
2021/10/23 12:32:14;;;;;;;3.08;1.45;;;;;;;;;;4975232;28;20117;-65
2021/10/23 12:34:50;;;;;;;2.08;1.40;;;;;;;;;;4975507;28;20093;-65
2021/10/23 12:37:26;;;;;;;4.47;1.70;;;;;;;;;;4975338;28;20489;-65
2021/10/23 12:40:08;;;;;;;5.10;1.40;;;;;;;;;;4975375;28;20054;-65
2021/10/23 12:42:36;;;;;;;2.40;1.40;;;;;;;;;;4975104;28;20109;-65
2021/10/23 12:45:04;;;;;;;3.13;0.90;;;;;;;;;;4975097;28;20098;-64
2021/10/23 12:47:31;;;;;;;3.95;1.23;;;;;;;;;;4974940;28;20049;-64
2021/10/23 12:49:58;;;;;;;2.88;1.60;;;;;;;;;;4975143;28;20106;-64
2021/10/23 12:52:24;;;;;;;3.17;1.65;;;;;;;;;;4974977;28;20058;-64
2021/10/23 12:54:51;;;;;;;3.42;1.40;;;;;;;;;;4975255;28;20058;-64
2021/10/23 12:57:18;;;;;;;5.47;1.30;;;;;;;;;;4974933;28;20054;-64
2021/10/23 12:59:44;;;;;;;4.25;2.00;;;;;;;;;;4975330;28;20090;-64
2021/10/23 13:02:11;;;;;;;4.57;1.30;;;;;;;;;;4974405;28;20109;-64
2021/10/23 13:04:38;;;;;;;2.95;1.33;;;;;;;;;;4974876;28;20137;-65
2021/10/23 13:07:04;;;;;;;4.72;1.80;;;;;;;;;;4974614;28;20051;-64
2021/10/23 13:09:31;;;;;;;4.43;1.20;;;;;;;;;;4974677;28;20046;-64
2021/10/23 13:11:58;;;;;;;2.67;1.10;;;;;;;;;;4974751;28;20084;-64
2021/10/23 13:14:24;;;;;;;3.97;1.23;;;;;;;;;;4974708;28;20050;-64
2021/10/23 13:16:51;;;;;;;2.33;1.00;;;;;;;;;;4974735;28;20521;-65
2021/10/23 13:19:18;;;;;;;2.70;0.90;;;;;;;;;;4974592;28;20074;-64
2021/10/23 13:21:44;;;;;;;3.72;1.33;;;;;;;;;;4974508;28;20121;-64
2021/10/23 13:24:11;;;;;;;1.48;1.00;;;;;;;;;;4957333;28;20510;-64
2021/10/23 13:26:38;;;;;;;1.65;1.00;;;;;;;;;;4974966;28;20113;-64
2021/10/23 13:29:05;;;;;;;2.25;1.17;;;;;;;;;;4974621;28;20042;-64
2021/10/23 13:31:31;;;;;;;2.63;0.90;;;;;;;;;;4974183;28;20058;-64
2021/10/23 13:33:58;;;;;;;3.50;1.20;;;;;;;;;;4973646;28;20058;-64
2021/10/23 13:36:25;;;;;;;4.60;1.38;;;;;;;;;;4973863;28;20055;-64
2021/10/23 13:38:52;;;;;;;2.70;1.10;;;;;;;;;;4974353;28;20053;-64
2021/10/23 13:41:18;;;;;;;2.50;1.27;;;;;;;;;;4974052;28;20125;-64
2021/10/23 13:43:45;;;;;;;5.18;1.50;;;;;;;;;;4974358;28;20058;-64
2021/10/23 13:46:12;;;;;;;2.28;0.90;;;;;;;;;;4974062;28;20098;-64
2021/10/23 13:48:38;;;;;;;3.20;0.98;;;;;;;;;;4973879;28;20061;-64
2021/10/23 13:51:05;;;;;;;4.22;1.27;;;;;;;;;;4973948;28;20046;-64
2021/10/23 13:53:32;;;;;;;4.00;1.65;;;;;;;;;;4956858;28;20313;-64
2021/10/23 13:55:58;;;;;;;3.50;1.20;;;;;;;;;;4973965;28;20086;-64
2021/10/23 13:58:25;;;;;;;3.83;1.15;;;;;;;;;;4973920;28;20469;-64
2021/10/23 14:00:51;;;;;;;2.75;0.90;;;;;;;;;;4973754;28;20106;-64
2021/10/23 14:03:19;;;;;;;1.88;1.10;;;;;;;;;;4972298;28;20143;-64
2021/10/23 14:05:47;;;;;;;8.85;2.55;;;;;;;;;;4973876;28;20101;-64
2021/10/23 14:08:15;;;;;;;4.90;1.15;;;;;;;;;;4973516;28;20051;-64
2021/10/23 14:10:42;;;;;;;4.78;1.38;;;;;;;;;;4973683;28;20522;-64
2021/10/23 14:13:09;;;;;;;4.97;2.28;;;;;;;;;;4973432;28;20051;-64
2021/10/23 14:15:37;;;;;;;2.55;1.27;;;;;;;;;;4973661;28;20051;-64
2021/10/23 14:18:03;;;;;;;1.95;1.00;;;;;;;;;;4973431;28;20043;-64
2021/10/23 14:20:30;;;;;;;3.58;1.00;;;;;;;;;;4973767;28;20465;-64
2021/10/23 14:22:57;;;;;;;3.20;1.38;;;;;;;;;;4973547;28;20057;-64
2021/10/23 14:25:28;;;;;;;3.60;1.33;;;;;;;;;;4973481;28;20054;-64
2021/10/23 14:27:57;;;;;;;2.30;1.00;;;;;;;;;;4973349;28;20494;-64
2021/10/23 14:30:26;;;;;;;1.63;1.10;;;;;;;;;;4973310;28;20050;-64
2021/10/23 14:32:52;;;;;;;2.78;1.23;;;;;;;;;;4973166;28;20105;-64
2021/10/23 14:35:19;;;;;;;4.35;0.98;;;;;;;;;;4973217;28;20062;-64
2021/10/23 14:37:46;;;;;;;2.08;0.80;;;;;;;;;;4973257;28;20097;-64
2021/10/23 14:40:13;;;;;;;2.83;1.05;;;;;;;;;;4973098;28;20054;-64
2021/10/23 14:42:40;;;;;;;2.28;0.80;;;;;;;;;;4973099;28;20129;-64
2021/10/23 14:45:07;;;;;;;4.18;1.00;;;;;;;;;;4973103;28;20074;-64
2021/10/23 14:47:33;;;;;;;3.53;0.98;;;;;;;;;;4972864;28;20494;-64
2021/10/23 14:50:00;;;;;;;4.03;1.20;;;;;;;;;;4973078;28;20414;-64
2021/10/23 14:52:27;;;;;;;4.03;1.20;;;;;;;;;;4972689;28;20050;-64
2021/10/23 14:54:53;;;;;;;4.90;1.10;;;;;;;;;;4973049;28;20058;-64
2021/10/23 14:57:20;;;;;;;3.83;1.10;;;;;;;;;;4972883;28;20055;-64
2021/10/23 14:59:47;;;;;;;1.88;0.90;;;;;;;;;;4973150;28;20070;-64